地図

経路データ

SID SEASON NUMBER BASIN SUBBASIN NAME ISO_TIME NATURE LAT LON WMO_WIND WMO_PRES WMO_AGENCY TRACK_TYPE DIST2LAND LANDFALL IFLAG USA_AGENCY USA_ATCF_ID USA_LAT USA_LON USA_RECORD USA_STATUS USA_WIND USA_PRES USA_SSHS USA_R34_NE USA_R34_SE USA_R34_SW USA_R34_NW USA_R50_NE USA_R50_SE USA_R50_SW USA_R50_NW USA_R64_NE USA_R64_SE USA_R64_SW USA_R64_NW USA_POCI USA_ROCI USA_RMW USA_EYE TOKYO_LAT TOKYO_LON TOKYO_GRADE TOKYO_WIND TOKYO_PRES TOKYO_R50_DIR TOKYO_R50_LONG TOKYO_R50_SHORT TOKYO_R30_DIR TOKYO_R30_LONG TOKYO_R30_SHORT TOKYO_LAND CMA_LAT CMA_LON CMA_CAT CMA_WIND CMA_PRES HKO_LAT HKO_LON HKO_CAT HKO_WIND HKO_PRES NEWDELHI_LAT NEWDELHI_LON NEWDELHI_GRADE NEWDELHI_WIND NEWDELHI_PRES NEWDELHI_CI NEWDELHI_DP NEWDELHI_POCI REUNION_LAT REUNION_LON REUNION_TYPE REUNION_WIND REUNION_PRES REUNION_TNUM REUNION_CI REUNION_RMW REUNION_R34_NE REUNION_R34_SE REUNION_R34_SW REUNION_R34_NW REUNION_R50_NE REUNION_R50_SE REUNION_R50_SW REUNION_R50_NW REUNION_R64_NE REUNION_R64_SE REUNION_R64_SW REUNION_R64_NW BOM_LAT BOM_LON BOM_TYPE BOM_WIND BOM_PRES BOM_TNUM BOM_CI BOM_RMW BOM_R34_NE BOM_R34_SE BOM_R34_SW BOM_R34_NW BOM_R50_NE BOM_R50_SE BOM_R50_SW BOM_R50_NW BOM_R64_NE BOM_R64_SE BOM_R64_SW BOM_R64_NW BOM_ROCI BOM_POCI BOM_EYE BOM_POS_METHOD BOM_PRES_METHOD NADI_LAT NADI_LON NADI_CAT NADI_WIND NADI_PRES WELLINGTON_LAT WELLINGTON_LON WELLINGTON_WIND WELLINGTON_PRES DS824_LAT DS824_LON DS824_STAGE DS824_WIND DS824_PRES TD9636_LAT TD9636_LON TD9636_STAGE TD9636_WIND TD9636_PRES TD9635_LAT TD9635_LON TD9635_WIND TD9635_PRES TD9635_ROCI NEUMANN_LAT NEUMANN_LON NEUMANN_CLASS NEUMANN_WIND NEUMANN_PRES MLC_LAT MLC_LON MLC_CLASS MLC_WIND MLC_PRES USA_GUST BOM_GUST BOM_GUST_PER REUNION_GUST REUNION_GUST_PER USA_SEAHGT USA_SEARAD_NE USA_SEARAD_SE USA_SEARAD_SW USA_SEARAD_NW STORM_SPEED STORM_DIR
1867121S13070 1867 8 SI MM NOT_NAMED 1867-05-01 06:00:00 NR -12.9000 69.5000 reunion main 1493 1478 _____O________ -1 -12.9000 69.5000 99 9.90000 4 222
1867121S13070 1867 8 SI MM NOT_NAMED 1867-05-01 09:00:00 NR -13.0434 69.3638 main 1478 1447 _____P________ -1 -13.0434 69.3638 99 4 223
1867121S13070 1867 8 SI MM NOT_NAMED 1867-05-01 12:00:00 NR -13.1862 69.2275 main 1447 1432 _____P________ -1 -13.1862 69.2275 99 4 223
1867121S13070 1867 8 SI MM NOT_NAMED 1867-05-01 15:00:00 NR -13.3279 69.0908 main 1432 1410 _____P________ -1 -13.3279 69.0908 99 4 223
1867121S13070 1867 8 SI MM NOT_NAMED 1867-05-01 18:00:00 NR -13.4678 68.9537 main 1410 1386 _____P________ -1 -13.4678 68.9537 99 4 224
1867121S13070 1867 8 SI MM NOT_NAMED 1867-05-01 21:00:00 NR -13.6056 68.8161 main 1386 1371 _____P________ -1 -13.6056 68.8161 99 4 225
1867121S13070 1867 8 SI MM NOT_NAMED 1867-05-02 00:00:00 NR -13.7406 68.6780 main 1371 1341 _____P________ -1 -13.7406 68.6780 99 4 225
1867121S13070 1867 8 SI MM NOT_NAMED 1867-05-02 03:00:00 NR -13.8722 68.5394 main 1341 1326 _____P________ -1 -13.8722 68.5394 99 4 226
1867121S13070 1867 8 SI MM NOT_NAMED 1867-05-02 06:00:00 NR -14.0000 68.4000 reunion main 1326 1311 _____O________ -1 -14.0000 68.4000 99 9.90000 4 227
1867121S13070 1867 8 SI MM NOT_NAMED 1867-05-02 09:00:00 NR -14.1241 68.2596 main 1311 1286 _____P________ -1 -14.1241 68.2596 99 4 228
1867121S13070 1867 8 SI MM NOT_NAMED 1867-05-02 12:00:00 NR -14.2478 68.1167 main 1286 1265 _____P________ -1 -14.2478 68.1167 99 4 228
1867121S13070 1867 8 SI MM NOT_NAMED 1867-05-02 15:00:00 NR -14.3750 67.9693 main 1265 1241 _____P________ -1 -14.3750 67.9693 99 4 228
1867121S13070 1867 8 SI MM NOT_NAMED 1867-05-02 18:00:00 NR -14.5095 67.8156 main 1241 1226 _____P________ -1 -14.5095 67.8156 99 4 227
1867121S13070 1867 8 SI MM NOT_NAMED 1867-05-02 21:00:00 NR -14.6553 67.6538 main 1220 1196 _____P________ -1 -14.6553 67.6538 99 4 226
1867121S13070 1867 8 SI MM NOT_NAMED 1867-05-03 00:00:00 NR -14.8164 67.4819 main 1196 1166 _____P________ -1 -14.8164 67.4819 99 5 225
1867121S13070 1867 8 SI MM NOT_NAMED 1867-05-03 03:00:00 NR -14.9967 67.2979 main 1166 1136 _____P________ -1 -14.9967 67.2979 99 5 224
1867121S13070 1867 8 SI MM NOT_NAMED 1867-05-03 06:00:00 NR -15.2000 67.1000 reunion main 1136 1106 _____O________ -1 -15.2000 67.1000 99 9.90000 6 223
1867121S13070 1867 8 SI MM NOT_NAMED 1867-05-03 09:00:00 NR -15.4462 66.8680 main 1106 1062 _____P________ -1 -15.4462 66.8680 99 7 222
1867121S13070 1867 8 SI MM NOT_NAMED 1867-05-03 12:00:00 NR -15.7169 66.6193 main 1062 1027 _____P________ -1 -15.7169 66.6193 99 7 221
1867121S13070 1867 8 SI MM NOT_NAMED 1867-05-03 15:00:00 NR -16.0056 66.3596 main 1027 983 _____P________ -1 -16.0056 66.3596 99 8 221
1867121S13070 1867 8 SI MM NOT_NAMED 1867-05-03 18:00:00 NR -16.3060 66.0946 main 983 939 _____P________ -1 -16.3060 66.0946 99 8 220
1867121S13070 1867 8 SI MM NOT_NAMED 1867-05-03 21:00:00 NR -16.6119 65.8302 main 939 905 _____P________ -1 -16.6119 65.8302 99 8 219
1867121S13070 1867 8 SI MM NOT_NAMED 1867-05-04 00:00:00 NR -16.9170 65.5724 main 905 862 _____P________ -1 -16.9170 65.5724 99 8 219
1867121S13070 1867 8 SI MM NOT_NAMED 1867-05-04 03:00:00 NR -17.2151 65.3269 main 862 829 _____P________ -1 -17.2151 65.3269 99 7 218
1867121S13070 1867 8 SI MM NOT_NAMED 1867-05-04 06:00:00 NR -17.5000 65.1000 reunion main 829 801 _____O________ -1 -17.5000 65.1000 99 9.90000 7 217
1867121S13070 1867 8 SI MM NOT_NAMED 1867-05-04 09:00:00 NR -17.7421 64.9044 main 801 769 _____P________ -1 -17.7421 64.9044 99 6 217
1867121S13070 1867 8 SI MM NOT_NAMED 1867-05-04 12:00:00 NR -17.9732 64.7249 main 769 751 _____P________ -1 -17.9732 64.7249 99 6 216
1867121S13070 1867 8 SI MM NOT_NAMED 1867-05-04 15:00:00 NR -18.1962 64.5601 main 751 724 _____P________ -1 -18.1962 64.5601 99 5 214
1867121S13070 1867 8 SI MM NOT_NAMED 1867-05-04 18:00:00 NR -18.4143 64.4084 main 724 707 _____P________ -1 -18.4143 64.4084 99 5 213
1867121S13070 1867 8 SI MM NOT_NAMED 1867-05-04 21:00:00 NR -18.6306 64.2681 main 707 681 _____P________ -1 -18.6306 64.2681 99 5 210
1867121S13070 1867 8 SI MM NOT_NAMED 1867-05-05 00:00:00 NR -18.8483 64.1377 main 681 662 _____P________ -1 -18.8483 64.1377 99 5 209
1867121S13070 1867 8 SI MM NOT_NAMED 1867-05-05 03:00:00 NR -19.0704 64.0155 main 662 647 _____P________ -1 -19.0704 64.0155 99 5 206
1867121S13070 1867 8 SI MM NOT_NAMED 1867-05-05 06:00:00 NR -19.3000 63.9000 reunion main 647 631 _____O________ -1 -19.3000 63.9000 99 9.90000 6 205
1867121S13070 1867 8 SI MM NOT_NAMED 1867-05-05 09:00:00 NR -19.5695 63.7700 main 631 618 _____P________ -1 -19.5695 63.7700 99 6 203
1867121S13070 1867 8 SI MM NOT_NAMED 1867-05-05 12:00:00 NR -19.8480 63.6471 main 608 595 _____P________ -1 -19.8480 63.6471 99 6 202
1867121S13070 1867 8 SI MM NOT_NAMED 1867-05-05 15:00:00 NR -20.1299 63.5320 main 595 583 _____P________ -1 -20.1299 63.5320 99 6 201
1867121S13070 1867 8 SI MM NOT_NAMED 1867-05-05 18:00:00 NR -20.4098 63.4254 main 583 573 _____P________ -1 -20.4098 63.4254 99 6 199
1867121S13070 1867 8 SI MM NOT_NAMED 1867-05-05 21:00:00 NR -20.6823 63.3282 main 574 565 _____P________ -1 -20.6823 63.3282 99 6 198
1867121S13070 1867 8 SI MM NOT_NAMED 1867-05-06 00:00:00 NR -20.9418 63.2410 main 565 565 _____P________ -1 -20.9418 63.2410 99 5 197
1867121S13070 1867 8 SI MM NOT_NAMED 1867-05-06 03:00:00 NR -21.1829 63.1646 main 570 560 _____P________ -1 -21.1829 63.1646 99 5 196
1867121S13070 1867 8 SI MM NOT_NAMED 1867-05-06 06:00:00 NR -21.4000 63.1000 reunion main 564 564 _____O________ -1 -21.4000 63.1000 99 9.90000 4 196
1867121S13070 1867 8 SI MM NOT_NAMED 1867-05-06 09:00:00 NR -21.5893 63.0475 main 559 559 _____P________ -1 -21.5893 63.0475 99 4 195
1867121S13070 1867 8 SI MM NOT_NAMED 1867-05-06 12:00:00 NR -21.7528 63.0059 main 564 564 _____P________ -1 -21.7528 63.0059 99 3 192
1867121S13070 1867 8 SI MM NOT_NAMED 1867-05-06 15:00:00 NR -21.8943 62.9737 main 568 568 _____P________ -1 -21.8943 62.9737 99 3 193
1867121S13070 1867 8 SI MM NOT_NAMED 1867-05-06 18:00:00 NR -22.0175 62.9495 main 561 561 _____P________ -1 -22.0175 62.9495 99 2 188
1867121S13070 1867 8 SI MM NOT_NAMED 1867-05-06 21:00:00 NR -22.1259 62.9316 main 565 565 _____P________ -1 -22.1259 62.9316 99 2 190
1867121S13070 1867 8 SI MM NOT_NAMED 1867-05-07 00:00:00 NR -22.2234 62.9184 main 569 569 _____P________ -1 -22.2234 62.9184 99 2 0
1867121S13070 1867 8 SI MM NOT_NAMED 1867-05-07 03:00:00 NR -22.3135 62.9084 main 573 573 _____P________ -1 -22.3135 62.9084 99 2 184
1867121S13070 1867 8 SI MM NOT_NAMED 1867-05-07 06:00:00 NR -22.4000 62.9000 reunion main 577 _____O________ -1 -22.4000 62.9000 99 9.90000 2 192

IBTrACS Databaseについて

本データベースは、米国NOAAが公開する1842年以降の世界の熱帯低気圧のベストトラックデータアーカイブInternational Best Track Archive for Climate Stewardship (IBTrACS)を、ウェブで閲覧しやすい形式に変換したものです。

最終更新日:2021-10-27